sensor_id;sensor_type;location;lat;lon;timestamp;temperature;humidity
63313;DHT22;49442;45.640;13.812;2023-04-06T00:01:25;5.40;68.00
63313;DHT22;49442;45.640;13.812;2023-04-06T00:03:50;5.40;68.10
63313;DHT22;49442;45.640;13.812;2023-04-06T00:06:16;5.40;67.80
63313;DHT22;49442;45.640;13.812;2023-04-06T00:08:42;5.40;67.80
63313;DHT22;49442;45.640;13.812;2023-04-06T00:11:08;5.40;68.30
63313;DHT22;49442;45.640;13.812;2023-04-06T00:13:34;5.50;67.90
63313;DHT22;49442;45.640;13.812;2023-04-06T00:16:00;5.40;67.20
63313;DHT22;49442;45.640;13.812;2023-04-06T00:18:26;5.40;67.70
63313;DHT22;49442;45.640;13.812;2023-04-06T00:20:52;5.40;67.60
63313;DHT22;49442;45.640;13.812;2023-04-06T00:23:18;5.40;68.90
63313;DHT22;49442;45.640;13.812;2023-04-06T00:25:43;5.40;67.80
63313;DHT22;49442;45.640;13.812;2023-04-06T00:28:09;5.30;67.70
63313;DHT22;49442;45.640;13.812;2023-04-06T00:30:35;5.30;67.90
63313;DHT22;49442;45.640;13.812;2023-04-06T00:33:01;5.40;68.90
63313;DHT22;49442;45.640;13.812;2023-04-06T00:35:26;5.30;68.40
63313;DHT22;49442;45.640;13.812;2023-04-06T00:37:52;5.30;68.80
63313;DHT22;49442;45.640;13.812;2023-04-06T00:40:18;5.20;69.00
63313;DHT22;49442;45.640;13.812;2023-04-06T00:42:43;5.20;68.90
63313;DHT22;49442;45.640;13.812;2023-04-06T00:45:10;5.20;69.20
63313;DHT22;49442;45.640;13.812;2023-04-06T00:47:35;5.20;69.10
63313;DHT22;49442;45.640;13.812;2023-04-06T00:50:01;5.20;69.20
63313;DHT22;49442;45.640;13.812;2023-04-06T00:52:28;5.20;69.00
63313;DHT22;49442;45.640;13.812;2023-04-06T00:54:53;5.20;69.00
63313;DHT22;49442;45.640;13.812;2023-04-06T00:57:19;5.20;69.20
63313;DHT22;49442;45.640;13.812;2023-04-06T00:59:45;5.20;69.10
63313;DHT22;49442;45.640;13.812;2023-04-06T01:02:11;5.20;69.10
63313;DHT22;49442;45.640;13.812;2023-04-06T01:04:37;5.20;69.10
63313;DHT22;49442;45.640;13.812;2023-04-06T01:07:03;5.20;68.80
63313;DHT22;49442;45.640;13.812;2023-04-06T01:09:29;5.20;68.60
63313;DHT22;49442;45.640;13.812;2023-04-06T01:11:56;5.20;68.50
63313;DHT22;49442;45.640;13.812;2023-04-06T01:14:22;5.30;68.90
63313;DHT22;49442;45.640;13.812;2023-04-06T01:16:48;5.30;68.70
63313;DHT22;49442;45.640;13.812;2023-04-06T01:19:14;5.20;68.50
63313;DHT22;49442;45.640;13.812;2023-04-06T01:21:40;5.20;69.10
63313;DHT22;49442;45.640;13.812;2023-04-06T01:24:06;5.20;69.00
63313;DHT22;49442;45.640;13.812;2023-04-06T01:26:33;5.20;68.80
63313;DHT22;49442;45.640;13.812;2023-04-06T01:28:59;5.20;69.40
63313;DHT22;49442;45.640;13.812;2023-04-06T01:31:25;5.20;69.20
63313;DHT22;49442;45.640;13.812;2023-04-06T01:33:52;5.20;69.20
63313;DHT22;49442;45.640;13.812;2023-04-06T01:36:18;5.10;69.20
63313;DHT22;49442;45.640;13.812;2023-04-06T01:38:45;5.10;69.40
63313;DHT22;49442;45.640;13.812;2023-04-06T01:41:11;5.10;69.50
63313;DHT22;49442;45.640;13.812;2023-04-06T01:43:36;5.10;69.70
63313;DHT22;49442;45.640;13.812;2023-04-06T01:46:02;5.10;69.50
63313;DHT22;49442;45.640;13.812;2023-04-06T01:48:28;5.10;69.70
63313;DHT22;49442;45.640;13.812;2023-04-06T01:50:54;5.10;69.40
63313;DHT22;49442;45.640;13.812;2023-04-06T01:53:20;5.00;69.60
63313;DHT22;49442;45.640;13.812;2023-04-06T01:55:46;5.00;70.20
63313;DHT22;49442;45.640;13.812;2023-04-06T01:58:12;5.10;70.10
63313;DHT22;49442;45.640;13.812;2023-04-06T02:00:38;5.10;69.90
63313;DHT22;49442;45.640;13.812;2023-04-06T02:03:04;5.00;69.60
63313;DHT22;49442;45.640;13.812;2023-04-06T02:05:31;4.90;69.90
63313;DHT22;49442;45.640;13.812;2023-04-06T02:07:58;4.90;70.30
63313;DHT22;49442;45.640;13.812;2023-04-06T02:10:24;4.90;69.80
63313;DHT22;49442;45.640;13.812;2023-04-06T02:12:50;4.90;70.10
63313;DHT22;49442;45.640;13.812;2023-04-06T02:15:15;4.80;69.90
63313;DHT22;49442;45.640;13.812;2023-04-06T02:17:42;4.90;70.00
63313;DHT22;49442;45.640;13.812;2023-04-06T02:20:08;4.90;70.10
63313;DHT22;49442;45.640;13.812;2023-04-06T02:22:35;4.90;70.10
63313;DHT22;49442;45.640;13.812;2023-04-06T02:25:01;4.90;69.60
63313;DHT22;49442;45.640;13.812;2023-04-06T02:27:27;4.90;69.90
63313;DHT22;49442;45.640;13.812;2023-04-06T02:29:53;4.90;70.00
63313;DHT22;49442;45.640;13.812;2023-04-06T02:32:19;4.90;70.40
63313;DHT22;49442;45.640;13.812;2023-04-06T02:34:45;4.90;69.80
63313;DHT22;49442;45.640;13.812;2023-04-06T02:37:10;4.90;69.80
63313;DHT22;49442;45.640;13.812;2023-04-06T02:39:36;4.80;69.90
63313;DHT22;49442;45.640;13.812;2023-04-06T02:42:02;4.80;69.70
63313;DHT22;49442;45.640;13.812;2023-04-06T02:44:27;4.80;69.70
63313;DHT22;49442;45.640;13.812;2023-04-06T02:46:53;4.80;69.90
63313;DHT22;49442;45.640;13.812;2023-04-06T02:49:19;4.80;69.70
63313;DHT22;49442;45.640;13.812;2023-04-06T02:51:45;4.80;69.40
63313;DHT22;49442;45.640;13.812;2023-04-06T02:54:10;4.80;69.40
63313;DHT22;49442;45.640;13.812;2023-04-06T02:56:36;4.80;69.20
63313;DHT22;49442;45.640;13.812;2023-04-06T02:59:02;4.80;69.60
63313;DHT22;49442;45.640;13.812;2023-04-06T03:01:27;4.80;69.70
63313;DHT22;49442;45.640;13.812;2023-04-06T03:03:53;4.80;69.40
63313;DHT22;49442;45.640;13.812;2023-04-06T03:06:19;4.70;69.20
63313;DHT22;49442;45.640;13.812;2023-04-06T03:08:44;4.70;69.50
63313;DHT22;49442;45.640;13.812;2023-04-06T03:11:10;4.60;69.80
63313;DHT22;49442;45.640;13.812;2023-04-06T03:13:36;4.60;70.20
63313;DHT22;49442;45.640;13.812;2023-04-06T03:16:04;4.50;70.10
63313;DHT22;49442;45.640;13.812;2023-04-06T03:18:30;4.50;70.40
63313;DHT22;49442;45.640;13.812;2023-04-06T03:20:56;4.40;71.00
63313;DHT22;49442;45.640;13.812;2023-04-06T03:23:21;4.40;70.80
63313;DHT22;49442;45.640;13.812;2023-04-06T03:25:47;4.40;71.00
63313;DHT22;49442;45.640;13.812;2023-04-06T03:28:13;4.40;70.70
63313;DHT22;49442;45.640;13.812;2023-04-06T03:30:39;4.40;71.10
63313;DHT22;49442;45.640;13.812;2023-04-06T03:33:04;4.30;70.80
63313;DHT22;49442;45.640;13.812;2023-04-06T03:35:30;4.30;70.90
63313;DHT22;49442;45.640;13.812;2023-04-06T03:37:56;4.30;71.00
63313;DHT22;49442;45.640;13.812;2023-04-06T03:40:22;4.20;70.90
63313;DHT22;49442;45.640;13.812;2023-04-06T03:42:48;4.20;70.90
63313;DHT22;49442;45.640;13.812;2023-04-06T03:45:14;4.30;71.20
63313;DHT22;49442;45.640;13.812;2023-04-06T03:47:40;4.30;70.70
63313;DHT22;49442;45.640;13.812;2023-04-06T03:50:06;4.30;70.80
63313;DHT22;49442;45.640;13.812;2023-04-06T03:52:32;4.30;71.10
63313;DHT22;49442;45.640;13.812;2023-04-06T03:54:57;4.30;70.80
63313;DHT22;49442;45.640;13.812;2023-04-06T03:57:23;4.30;70.80
63313;DHT22;49442;45.640;13.812;2023-04-06T03:59:49;4.30;70.80
63313;DHT22;49442;45.640;13.812;2023-04-06T04:02:14;4.20;70.60
63313;DHT22;49442;45.640;13.812;2023-04-06T04:04:40;4.30;71.30
63313;DHT22;49442;45.640;13.812;2023-04-06T04:07:06;4.30;71.20
63313;DHT22;49442;45.640;13.812;2023-04-06T04:09:31;4.20;71.10
63313;DHT22;49442;45.640;13.812;2023-04-06T04:11:57;4.20;71.80
63313;DHT22;49442;45.640;13.812;2023-04-06T04:14:23;4.20;71.40
63313;DHT22;49442;45.640;13.812;2023-04-06T04:16:49;4.20;71.50
63313;DHT22;49442;45.640;13.812;2023-04-06T04:19:14;4.20;71.60
63313;DHT22;49442;45.640;13.812;2023-04-06T04:21:44;4.20;72.40
63313;DHT22;49442;45.640;13.812;2023-04-06T04:24:10;4.20;71.70
63313;DHT22;49442;45.640;13.812;2023-04-06T04:26:36;4.20;71.90
63313;DHT22;49442;45.640;13.812;2023-04-06T04:29:02;4.20;71.60
63313;DHT22;49442;45.640;13.812;2023-04-06T04:31:28;4.20;71.60
63313;DHT22;49442;45.640;13.812;2023-04-06T04:33:53;4.20;71.30
63313;DHT22;49442;45.640;13.812;2023-04-06T04:36:19;4.20;71.60
63313;DHT22;49442;45.640;13.812;2023-04-06T04:38:45;4.10;71.80
63313;DHT22;49442;45.640;13.812;2023-04-06T04:41:10;4.20;72.10
63313;DHT22;49442;45.640;13.812;2023-04-06T04:43:36;4.10;71.30
63313;DHT22;49442;45.640;13.812;2023-04-06T04:46:02;4.20;71.70
63313;DHT22;49442;45.640;13.812;2023-04-06T04:48:29;4.10;71.30
63313;DHT22;49442;45.640;13.812;2023-04-06T04:50:55;4.10;71.70
63313;DHT22;49442;45.640;13.812;2023-04-06T04:53:20;4.00;72.30
63313;DHT22;49442;45.640;13.812;2023-04-06T04:55:46;4.00;72.40
63313;DHT22;49442;45.640;13.812;2023-04-06T04:58:12;4.10;72.70
63313;DHT22;49442;45.640;13.812;2023-04-06T05:00:45;4.10;71.90
63313;DHT22;49442;45.640;13.812;2023-04-06T05:03:22;4.10;71.80
63313;DHT22;49442;45.640;13.812;2023-04-06T05:05:48;4.20;72.10
63313;DHT22;49442;45.640;13.812;2023-04-06T05:08:14;4.10;71.90
63313;DHT22;49442;45.640;13.812;2023-04-06T05:10:40;4.20;71.40
63313;DHT22;49442;45.640;13.812;2023-04-06T05:13:05;4.20;72.10
63313;DHT22;49442;45.640;13.812;2023-04-06T05:15:31;4.20;71.20
63313;DHT22;49442;45.640;13.812;2023-04-06T05:18:00;4.20;71.70
63313;DHT22;49442;45.640;13.812;2023-04-06T05:20:26;4.20;72.10
63313;DHT22;49442;45.640;13.812;2023-04-06T05:22:53;4.20;71.40
63313;DHT22;49442;45.640;13.812;2023-04-06T05:25:19;4.20;72.40
63313;DHT22;49442;45.640;13.812;2023-04-06T05:27:45;4.20;71.60
63313;DHT22;49442;45.640;13.812;2023-04-06T05:30:11;4.20;73.70
63313;DHT22;49442;45.640;13.812;2023-04-06T05:32:36;4.30;71.80
63313;DHT22;49442;45.640;13.812;2023-04-06T05:35:02;4.30;71.70
63313;DHT22;49442;45.640;13.812;2023-04-06T05:37:28;4.30;72.50
63313;DHT22;49442;45.640;13.812;2023-04-06T05:39:53;4.20;72.10
63313;DHT22;49442;45.640;13.812;2023-04-06T05:42:19;4.30;72.30
63313;DHT22;49442;45.640;13.812;2023-04-06T05:44:45;4.30;72.60
63313;DHT22;49442;45.640;13.812;2023-04-06T05:47:11;4.40;73.00
63313;DHT22;49442;45.640;13.812;2023-04-06T05:49:36;4.40;72.60
63313;DHT22;49442;45.640;13.812;2023-04-06T05:52:02;4.50;72.50
63313;DHT22;49442;45.640;13.812;2023-04-06T05:54:29;4.50;71.80
63313;DHT22;49442;45.640;13.812;2023-04-06T05:56:55;4.60;71.80
63313;DHT22;49442;45.640;13.812;2023-04-06T05:59:21;4.70;71.50
63313;DHT22;49442;45.640;13.812;2023-04-06T06:01:46;4.70;70.50
63313;DHT22;49442;45.640;13.812;2023-04-06T06:04:12;4.80;70.90
63313;DHT22;49442;45.640;13.812;2023-04-06T06:06:38;4.80;71.80
63313;DHT22;49442;45.640;13.812;2023-04-06T06:09:06;4.90;69.50
63313;DHT22;49442;45.640;13.812;2023-04-06T06:11:32;5.00;69.30
63313;DHT22;49442;45.640;13.812;2023-04-06T06:13:58;5.10;69.60
63313;DHT22;49442;45.640;13.812;2023-04-06T06:16:24;5.10;70.50
63313;DHT22;49442;45.640;13.812;2023-04-06T06:18:50;5.20;69.80
63313;DHT22;49442;45.640;13.812;2023-04-06T06:21:15;5.30;68.40
63313;DHT22;49442;45.640;13.812;2023-04-06T06:23:42;5.40;68.00
63313;DHT22;49442;45.640;13.812;2023-04-06T06:26:08;5.40;69.70
63313;DHT22;49442;45.640;13.812;2023-04-06T06:28:34;5.50;70.10
63313;DHT22;49442;45.640;13.812;2023-04-06T06:31:00;5.60;69.80
63313;DHT22;49442;45.640;13.812;2023-04-06T06:33:26;5.80;67.00
63313;DHT22;49442;45.640;13.812;2023-04-06T06:35:52;5.80;68.20
63313;DHT22;49442;45.640;13.812;2023-04-06T06:38:18;5.80;66.50
63313;DHT22;49442;45.640;13.812;2023-04-06T06:40:45;5.80;67.80
63313;DHT22;49442;45.640;13.812;2023-04-06T06:43:11;5.90;67.10
63313;DHT22;49442;45.640;13.812;2023-04-06T06:45:37;6.10;66.90
63313;DHT22;49442;45.640;13.812;2023-04-06T06:48:02;6.10;66.20
63313;DHT22;49442;45.640;13.812;2023-04-06T06:50:28;6.10;67.30
63313;DHT22;49442;45.640;13.812;2023-04-06T06:52:54;6.20;66.10
63313;DHT22;49442;45.640;13.812;2023-04-06T06:55:20;6.30;65.50
63313;DHT22;49442;45.640;13.812;2023-04-06T06:57:45;6.50;65.10
63313;DHT22;49442;45.640;13.812;2023-04-06T07:00:17;6.60;64.60
63313;DHT22;49442;45.640;13.812;2023-04-06T07:02:45;6.70;64.90
63313;DHT22;49442;45.640;13.812;2023-04-06T07:05:11;6.80;64.50
63313;DHT22;49442;45.640;13.812;2023-04-06T07:07:37;6.90;65.50
63313;DHT22;49442;45.640;13.812;2023-04-06T07:10:03;7.00;64.10
63313;DHT22;49442;45.640;13.812;2023-04-06T07:12:29;7.00;64.60
63313;DHT22;49442;45.640;13.812;2023-04-06T07:14:54;7.00;64.30
63313;DHT22;49442;45.640;13.812;2023-04-06T07:17:20;7.10;63.40
63313;DHT22;49442;45.640;13.812;2023-04-06T07:19:46;7.10;64.10
63313;DHT22;49442;45.640;13.812;2023-04-06T07:22:12;7.30;64.20
63313;DHT22;49442;45.640;13.812;2023-04-06T07:24:37;7.40;63.80
63313;DHT22;49442;45.640;13.812;2023-04-06T07:27:03;7.40;63.60
63313;DHT22;49442;45.640;13.812;2023-04-06T07:29:29;7.50;63.40
63313;DHT22;49442;45.640;13.812;2023-04-06T07:31:55;7.60;62.80
63313;DHT22;49442;45.640;13.812;2023-04-06T07:34:21;7.70;63.30
63313;DHT22;49442;45.640;13.812;2023-04-06T07:36:47;7.80;62.40
63313;DHT22;49442;45.640;13.812;2023-04-06T07:39:13;7.80;62.30
63313;DHT22;49442;45.640;13.812;2023-04-06T07:41:39;7.90;63.20
63313;DHT22;49442;45.640;13.812;2023-04-06T07:44:05;7.90;61.60
63313;DHT22;49442;45.640;13.812;2023-04-06T07:46:31;7.90;62.80
63313;DHT22;49442;45.640;13.812;2023-04-06T07:48:57;8.10;63.20
63313;DHT22;49442;45.640;13.812;2023-04-06T07:51:23;8.30;62.50
63313;DHT22;49442;45.640;13.812;2023-04-06T07:53:50;8.40;61.20
63313;DHT22;49442;45.640;13.812;2023-04-06T07:56:16;8.40;61.10
63313;DHT22;49442;45.640;13.812;2023-04-06T07:58:42;8.40;60.50
63313;DHT22;49442;45.640;13.812;2023-04-06T08:01:08;8.70;61.20
63313;DHT22;49442;45.640;13.812;2023-04-06T08:03:35;9.00;60.90
63313;DHT22;49442;45.640;13.812;2023-04-06T08:06:01;8.80;59.60
63313;DHT22;49442;45.640;13.812;2023-04-06T08:08:28;9.00;59.80
63313;DHT22;49442;45.640;13.812;2023-04-06T08:10:53;9.20;59.70
63313;DHT22;49442;45.640;13.812;2023-04-06T08:13:19;9.30;59.50
63313;DHT22;49442;45.640;13.812;2023-04-06T08:15:45;9.30;59.20
63313;DHT22;49442;45.640;13.812;2023-04-06T08:18:11;9.10;59.60
63313;DHT22;49442;45.640;13.812;2023-04-06T08:20:37;9.30;59.20
63313;DHT22;49442;45.640;13.812;2023-04-06T08:23:03;9.40;59.40
63313;DHT22;49442;45.640;13.812;2023-04-06T08:25:29;9.40;58.70
63313;DHT22;49442;45.640;13.812;2023-04-06T08:27:54;9.40;57.70
63313;DHT22;49442;45.640;13.812;2023-04-06T08:30:20;9.50;58.80
63313;DHT22;49442;45.640;13.812;2023-04-06T08:32:46;9.60;58.80
63313;DHT22;49442;45.640;13.812;2023-04-06T08:35:12;9.90;56.90
63313;DHT22;49442;45.640;13.812;2023-04-06T08:37:38;10.10;58.20
63313;DHT22;49442;45.640;13.812;2023-04-06T08:40:04;10.10;57.30
63313;DHT22;49442;45.640;13.812;2023-04-06T08:42:32;10.30;56.70
63313;DHT22;49442;45.640;13.812;2023-04-06T08:44:59;10.20;57.50
63313;DHT22;49442;45.640;13.812;2023-04-06T08:47:25;10.30;56.60
63313;DHT22;49442;45.640;13.812;2023-04-06T08:49:52;11.00;57.30
63313;DHT22;49442;45.640;13.812;2023-04-06T08:52:19;13.90;52.90
63313;DHT22;49442;45.640;13.812;2023-04-06T08:54:45;15.80;48.80
63313;DHT22;49442;45.640;13.812;2023-04-06T08:57:11;17.70;45.60
63313;DHT22;49442;45.640;13.812;2023-04-06T08:59:37;17.10;45.70
63313;DHT22;49442;45.640;13.812;2023-04-06T09:02:04;16.50;47.60
63313;DHT22;49442;45.640;13.812;2023-04-06T09:04:33;16.10;47.00
63313;DHT22;49442;45.640;13.812;2023-04-06T09:06:59;15.90;49.60
63313;DHT22;49442;45.640;13.812;2023-04-06T09:09:25;15.40;47.80
63313;DHT22;49442;45.640;13.812;2023-04-06T09:11:51;14.20;49.00
63313;DHT22;49442;45.640;13.812;2023-04-06T09:14:36;13.90;50.70
63313;DHT22;49442;45.640;13.812;2023-04-06T09:17:02;13.80;50.20
63313;DHT22;49442;45.640;13.812;2023-04-06T09:19:28;13.90;51.80
63313;DHT22;49442;45.640;13.812;2023-04-06T09:22:06;12.90;49.30
63313;DHT22;49442;45.640;13.812;2023-04-06T09:24:43;11.90;51.80
63313;DHT22;49442;45.640;13.812;2023-04-06T09:27:09;11.70;53.70
63313;DHT22;49442;45.640;13.812;2023-04-06T09:29:34;11.90;54.60
63313;DHT22;49442;45.640;13.812;2023-04-06T09:32:05;12.00;54.30
63313;DHT22;49442;45.640;13.812;2023-04-06T09:34:32;12.20;52.90
63313;DHT22;49442;45.640;13.812;2023-04-06T09:36:58;12.50;54.30
63313;DHT22;49442;45.640;13.812;2023-04-06T09:39:24;12.60;56.20
63313;DHT22;49442;45.640;13.812;2023-04-06T09:41:53;12.40;55.90
63313;DHT22;49442;45.640;13.812;2023-04-06T09:44:22;12.50;57.40
63313;DHT22;49442;45.640;13.812;2023-04-06T09:46:50;12.60;57.50
63313;DHT22;49442;45.640;13.812;2023-04-06T09:49:18;12.40;57.50
63313;DHT22;49442;45.640;13.812;2023-04-06T09:51:54;12.30;58.20
63313;DHT22;49442;45.640;13.812;2023-04-06T09:54:22;12.30;57.30
63313;DHT22;49442;45.640;13.812;2023-04-06T09:56:55;12.20;56.90
63313;DHT22;49442;45.640;13.812;2023-04-06T10:01:55;11.90;58.00
63313;DHT22;49442;45.640;13.812;2023-04-06T10:07:06;11.60;59.30
63313;DHT22;49442;45.640;13.812;2023-04-06T10:09:32;11.70;60.10
63313;DHT22;49442;45.640;13.812;2023-04-06T10:12:07;12.00;59.30
63313;DHT22;49442;45.640;13.812;2023-04-06T10:14:33;11.80;59.20
63313;DHT22;49442;45.640;13.812;2023-04-06T10:17:08;11.90;60.40
63313;DHT22;49442;45.640;13.812;2023-04-06T10:22:24;11.70;59.00
63313;DHT22;49442;45.640;13.812;2023-04-06T10:24:52;11.60;58.50
63313;DHT22;49442;45.640;13.812;2023-04-06T10:27:27;11.50;59.90
63313;DHT22;49442;45.640;13.812;2023-04-06T10:29:54;11.30;58.80
63313;DHT22;49442;45.640;13.812;2023-04-06T10:32:19;11.40;59.80
63313;DHT22;49442;45.640;13.812;2023-04-06T10:34:45;11.50;59.60
63313;DHT22;49442;45.640;13.812;2023-04-06T10:37:15;11.50;58.40
63313;DHT22;49442;45.640;13.812;2023-04-06T10:39:54;11.50;58.60
63313;DHT22;49442;45.640;13.812;2023-04-06T10:42:24;11.50;59.20
63313;DHT22;49442;45.640;13.812;2023-04-06T10:44:50;11.60;59.40
63313;DHT22;49442;45.640;13.812;2023-04-06T10:47:17;11.80;59.10
63313;DHT22;49442;45.640;13.812;2023-04-06T10:49:45;11.80;59.30
63313;DHT22;49442;45.640;13.812;2023-04-06T10:52:11;11.70;58.00
63313;DHT22;49442;45.640;13.812;2023-04-06T10:54:42;11.70;58.30
63313;DHT22;49442;45.640;13.812;2023-04-06T10:57:12;11.80;58.00
63313;DHT22;49442;45.640;13.812;2023-04-06T10:59:42;11.90;58.70
63313;DHT22;49442;45.640;13.812;2023-04-06T11:02:09;12.00;58.30
63313;DHT22;49442;45.640;13.812;2023-04-06T11:04:54;12.10;57.80
63313;DHT22;49442;45.640;13.812;2023-04-06T11:07:23;12.10;57.80
63313;DHT22;49442;45.640;13.812;2023-04-06T11:09:50;12.10;58.90
63313;DHT22;49442;45.640;13.812;2023-04-06T11:12:26;12.00;58.90
63313;DHT22;49442;45.640;13.812;2023-04-06T11:14:58;11.80;58.40
63313;DHT22;49442;45.640;13.812;2023-04-06T11:17:37;11.70;59.30
63313;DHT22;49442;45.640;13.812;2023-04-06T11:20:04;11.60;60.60
63313;DHT22;49442;45.640;13.812;2023-04-06T11:22:35;11.80;62.60
63313;DHT22;49442;45.640;13.812;2023-04-06T11:25:07;11.80;60.70
63313;DHT22;49442;45.640;13.812;2023-04-06T11:27:36;11.90;59.70
63313;DHT22;49442;45.640;13.812;2023-04-06T11:30:02;11.30;59.10
63313;DHT22;49442;45.640;13.812;2023-04-06T11:32:28;11.50;62.80
63313;DHT22;49442;45.640;13.812;2023-04-06T11:34:54;11.70;61.50
63313;DHT22;49442;45.640;13.812;2023-04-06T11:37:26;11.80;61.10
63313;DHT22;49442;45.640;13.812;2023-04-06T11:39:54;12.00;60.70
63313;DHT22;49442;45.640;13.812;2023-04-06T11:42:24;12.00;60.90
63313;DHT22;49442;45.640;13.812;2023-04-06T11:44:57;12.10;59.90
63313;DHT22;49442;45.640;13.812;2023-04-06T11:47:35;12.10;61.00
63313;DHT22;49442;45.640;13.812;2023-04-06T11:50:11;12.20;60.00
63313;DHT22;49442;45.640;13.812;2023-04-06T11:52:42;12.10;60.20
63313;DHT22;49442;45.640;13.812;2023-04-06T11:57:38;12.10;60.50
63313;DHT22;49442;45.640;13.812;2023-04-06T12:00:04;12.20;60.90
63313;DHT22;49442;45.640;13.812;2023-04-06T12:02:29;12.00;60.90
63313;DHT22;49442;45.640;13.812;2023-04-06T12:04:57;11.90;60.00
63313;DHT22;49442;45.640;13.812;2023-04-06T12:07:23;12.00;59.90
63313;DHT22;49442;45.640;13.812;2023-04-06T12:09:49;12.20;60.10
63313;DHT22;49442;45.640;13.812;2023-04-06T12:12:14;12.00;58.10
63313;DHT22;49442;45.640;13.812;2023-04-06T12:14:40;11.90;61.20
63313;DHT22;49442;45.640;13.812;2023-04-06T12:17:05;12.00;59.20
63313;DHT22;49442;45.640;13.812;2023-04-06T12:19:31;11.90;62.20
63313;DHT22;49442;45.640;13.812;2023-04-06T12:21:57;12.10;61.40
63313;DHT22;49442;45.640;13.812;2023-04-06T12:24:23;12.40;60.70
63313;DHT22;49442;45.640;13.812;2023-04-06T12:26:49;12.60;62.30
63313;DHT22;49442;45.640;13.812;2023-04-06T12:29:15;12.70;60.80
63313;DHT22;49442;45.640;13.812;2023-04-06T12:31:41;12.80;60.80
63313;DHT22;49442;45.640;13.812;2023-04-06T12:34:08;12.80;62.40
63313;DHT22;49442;45.640;13.812;2023-04-06T12:36:34;12.80;61.10
63313;DHT22;49442;45.640;13.812;2023-04-06T12:39:00;12.10;60.20
63313;DHT22;49442;45.640;13.812;2023-04-06T12:41:27;12.10;61.40
63313;DHT22;49442;45.640;13.812;2023-04-06T12:43:53;12.40;62.60
63313;DHT22;49442;45.640;13.812;2023-04-06T12:46:19;12.60;62.20
63313;DHT22;49442;45.640;13.812;2023-04-06T12:48:45;12.80;62.30
63313;DHT22;49442;45.640;13.812;2023-04-06T12:51:11;12.80;61.30
63313;DHT22;49442;45.640;13.812;2023-04-06T12:53:37;12.40;59.70
63313;DHT22;49442;45.640;13.812;2023-04-06T12:56:14;12.50;62.60
63313;DHT22;49442;45.640;13.812;2023-04-06T12:58:40;12.70;63.50
63313;DHT22;49442;45.640;13.812;2023-04-06T13:01:07;12.70;61.30
63313;DHT22;49442;45.640;13.812;2023-04-06T13:03:33;12.70;60.90
63313;DHT22;49442;45.640;13.812;2023-04-06T13:06:00;12.70;61.00
63313;DHT22;49442;45.640;13.812;2023-04-06T13:08:26;12.70;60.30
63313;DHT22;49442;45.640;13.812;2023-04-06T13:10:53;12.70;60.80
63313;DHT22;49442;45.640;13.812;2023-04-06T13:13:29;12.60;61.40
63313;DHT22;49442;45.640;13.812;2023-04-06T13:16:00;12.00;59.80
63313;DHT22;49442;45.640;13.812;2023-04-06T13:18:26;12.30;63.90
63313;DHT22;49442;45.640;13.812;2023-04-06T13:20:56;12.50;63.20
63313;DHT22;49442;45.640;13.812;2023-04-06T13:23:25;12.70;61.70
63313;DHT22;49442;45.640;13.812;2023-04-06T13:26:05;12.80;62.20
63313;DHT22;49442;45.640;13.812;2023-04-06T13:28:32;12.70;61.50
63313;DHT22;49442;45.640;13.812;2023-04-06T13:31:00;12.80;61.90
63313;DHT22;49442;45.640;13.812;2023-04-06T13:33:27;12.90;60.00
63313;DHT22;49442;45.640;13.812;2023-04-06T13:35:52;12.90;61.30
63313;DHT22;49442;45.640;13.812;2023-04-06T13:38:18;12.90;61.00
63313;DHT22;49442;45.640;13.812;2023-04-06T13:40:45;12.90;61.00
63313;DHT22;49442;45.640;13.812;2023-04-06T13:43:11;13.00;62.00
63313;DHT22;49442;45.640;13.812;2023-04-06T13:45:37;13.10;61.70
63313;DHT22;49442;45.640;13.812;2023-04-06T13:48:03;12.60;58.80
63313;DHT22;49442;45.640;13.812;2023-04-06T13:50:29;12.70;61.30
63313;DHT22;49442;45.640;13.812;2023-04-06T13:53:02;12.60;61.60
63313;DHT22;49442;45.640;13.812;2023-04-06T13:55:27;12.90;61.70
63313;DHT22;49442;45.640;13.812;2023-04-06T13:57:53;12.90;59.30
63313;DHT22;49442;45.640;13.812;2023-04-06T14:00:20;12.80;58.80
63313;DHT22;49442;45.640;13.812;2023-04-06T14:02:46;13.00;61.80
63313;DHT22;49442;45.640;13.812;2023-04-06T14:05:11;13.00;60.50
63313;DHT22;49442;45.640;13.812;2023-04-06T14:07:37;13.10;63.60
63313;DHT22;49442;45.640;13.812;2023-04-06T14:10:03;13.10;62.50
63313;DHT22;49442;45.640;13.812;2023-04-06T14:12:29;13.00;62.70
63313;DHT22;49442;45.640;13.812;2023-04-06T14:14:57;13.20;62.60
63313;DHT22;49442;45.640;13.812;2023-04-06T14:17:22;12.80;61.90
63313;DHT22;49442;45.640;13.812;2023-04-06T14:19:48;12.90;62.90
63313;DHT22;49442;45.640;13.812;2023-04-06T14:22:14;12.80;59.90
63313;DHT22;49442;45.640;13.812;2023-04-06T14:24:40;12.50;60.00
63313;DHT22;49442;45.640;13.812;2023-04-06T14:27:06;12.70;60.40
63313;DHT22;49442;45.640;13.812;2023-04-06T14:29:31;12.60;60.70
63313;DHT22;49442;45.640;13.812;2023-04-06T14:31:57;12.60;62.10
63313;DHT22;49442;45.640;13.812;2023-04-06T14:34:28;12.60;63.90
63313;DHT22;49442;45.640;13.812;2023-04-06T14:36:54;12.50;59.90
63313;DHT22;49442;45.640;13.812;2023-04-06T14:39:20;12.20;59.80
63313;DHT22;49442;45.640;13.812;2023-04-06T14:41:46;12.30;63.20
63313;DHT22;49442;45.640;13.812;2023-04-06T14:44:14;12.50;62.20
63313;DHT22;49442;45.640;13.812;2023-04-06T14:46:39;12.60;60.70
63313;DHT22;49442;45.640;13.812;2023-04-06T14:49:05;12.70;63.60
63313;DHT22;49442;45.640;13.812;2023-04-06T14:51:34;12.80;61.50
63313;DHT22;49442;45.640;13.812;2023-04-06T14:54:01;12.90;62.50
63313;DHT22;49442;45.640;13.812;2023-04-06T14:56:28;12.80;59.10
63313;DHT22;49442;45.640;13.812;2023-04-06T14:58:57;12.50;59.90
63313;DHT22;49442;45.640;13.812;2023-04-06T15:01:23;12.70;62.60
63313;DHT22;49442;45.640;13.812;2023-04-06T15:03:49;12.80;61.60
63313;DHT22;49442;45.640;13.812;2023-04-06T15:06:15;12.80;61.30
63313;DHT22;49442;45.640;13.812;2023-04-06T15:08:42;12.60;59.30
63313;DHT22;49442;45.640;13.812;2023-04-06T15:11:09;12.80;60.50
63313;DHT22;49442;45.640;13.812;2023-04-06T15:13:35;13.20;60.00
63313;DHT22;49442;45.640;13.812;2023-04-06T15:16:01;13.40;56.80
63313;DHT22;49442;45.640;13.812;2023-04-06T15:18:26;13.10;55.40
63313;DHT22;49442;45.640;13.812;2023-04-06T15:20:52;13.00;56.00
63313;DHT22;49442;45.640;13.812;2023-04-06T15:23:18;13.10;60.70
63313;DHT22;49442;45.640;13.812;2023-04-06T15:25:44;13.10;60.70
63313;DHT22;49442;45.640;13.812;2023-04-06T15:28:09;13.00;58.90
63313;DHT22;49442;45.640;13.812;2023-04-06T15:30:36;12.80;60.70
63313;DHT22;49442;45.640;13.812;2023-04-06T15:33:04;12.60;61.90